HISTORICAL SENSOR DATA

Sensor Data Report

DB LIVE
CURRENT TIME--:--:--
DEVICE NETWORK Gateway Status
13 ESP · realtime ~1s · history 60s
Weather WS-MOD-01
ONLINE
Actuator ACT-MOD-01
OFFLINE
Mainboard L3 MB-L3-01
ONLINE
Mainboard L5 MB-L5-01
ONLINE
Remote AC AC-REMOTE-01
ONLINE
PZEM L3-01 PWR-L3-01
OFFLINE
PZEM L3-02 PWR-L3-02
OFFLINE
PZEM L3-03 PWR-L3-03
OFFLINE
PZEM L3-04 PWR-L3-04
OFFLINE
PZEM L5-01 PWR-L5-01
ONLINE
PZEM L5-02 PWR-L5-02
ONLINE
PZEM L5-03 PWR-L5-03
OFFLINE
PZEM L5-04 PWR-L5-04
OFFLINE
REPORT FILTER

Periode & Sensor

DATABASE HISTORY
RESET
QUICK RANGE Hari ini 7 hari 30 hari
PERIODE04 Aug 2026sampai 02 Sep 2026
TOTAL DATA40,278sensor readings
MINIMUM-0.50sesuai filter
AVERAGE56.78sesuai filter
MAXIMUM998.00sesuai filter
REPORT RESULT

Data Sensor

04/08/2026 — 02/09/2026 EXPORT CSV
NOTANGGALWAKTUDEVICECHANNELSENSORVALUEUNIT
12801 02/09/2026 14:54:09 MB-L3-01Mainboard Lantai 3 L3-RAD-02 Radiation 2 2.00 W/m²
12802 02/09/2026 14:54:09 MB-L5-01Mainboard Lantai 5 L5-AI-06 Analog Input 6 3.05 V
12803 02/09/2026 14:54:09 MB-L3-01Mainboard Lantai 3 L3-LUX-03 Illuminance / LUX 3 169.70 lux
12804 02/09/2026 14:54:09 MB-L5-01Mainboard Lantai 5 L5-SHT-02-RH SHT20 2 Humidity 48.20 %RH
12805 02/09/2026 14:54:09 MB-L3-01Mainboard Lantai 3 L3-AI-04 Analog Input 4 3.12 V
12806 02/09/2026 14:54:09 MB-L5-01Mainboard Lantai 5 L5-LUX-04 Illuminance / LUX 4 284.30 lux
12807 02/09/2026 14:54:09 MB-L3-01Mainboard Lantai 3 L3-BGT-02 Black Globe Temperature 2 29.90 °C
12808 02/09/2026 14:54:09 MB-L3-01Mainboard Lantai 3 L3-RAD-01 Radiation 1 2.00 W/m²
12809 02/09/2026 14:54:09 MB-L5-01Mainboard Lantai 5 L5-AI-05 Analog Input 5 3.05 V
12810 02/09/2026 14:54:09 MB-L5-01Mainboard Lantai 5 L5-SHT-03-T SHT20 3 Temperature 32.20 °C
12811 02/09/2026 14:54:09 MB-L5-01Mainboard Lantai 5 L5-SHT-01-T SHT20 1 Temperature 32.30 °C
12812 02/09/2026 14:54:09 MB-L3-01Mainboard Lantai 3 L3-SHT-03-RH SHT20 3 Humidity 49.20 %RH
12813 02/09/2026 14:54:09 MB-L5-01Mainboard Lantai 5 L5-SHT-02-T SHT20 2 Temperature 32.30 °C
12814 02/09/2026 14:54:09 MB-L5-01Mainboard Lantai 5 L5-SHT-03-RH SHT20 3 Humidity 48.60 %RH
12815 02/09/2026 14:54:09 MB-L5-01Mainboard Lantai 5 L5-AI-04 Analog Input 4 3.05 V
12816 02/09/2026 14:54:09 MB-L3-01Mainboard Lantai 3 L3-ST-01 Surface Temperature 1 30.00 °C
12817 02/09/2026 14:54:09 MB-L3-01Mainboard Lantai 3 L3-AI-05 Analog Input 5 3.12 V
12818 02/09/2026 14:54:09 MB-L3-01Mainboard Lantai 3 L3-SHT-03-T SHT20 3 Temperature 31.80 °C
12819 02/09/2026 14:54:09 MB-L5-01Mainboard Lantai 5 L5-RAD-01 Radiation 1 2.00 W/m²
12820 02/09/2026 14:54:09 MB-L5-01Mainboard Lantai 5 L5-AI-03 Analog Input 3 3.05 V
12821 02/09/2026 14:54:09 MB-L3-01Mainboard Lantai 3 L3-SHT-02-T SHT20 2 Temperature 32.10 °C
12822 02/09/2026 14:54:09 MB-L5-01Mainboard Lantai 5 L5-AI-02 Analog Input 2 3.05 V
12823 02/09/2026 14:54:09 MB-L3-01Mainboard Lantai 3 L3-BGT-03 Black Globe Temperature 3 29.40 °C
12824 02/09/2026 14:54:09 MB-L5-01Mainboard Lantai 5 L5-AI-01 Analog Input 1 3.05 V
12825 02/09/2026 14:54:09 MB-L3-01Mainboard Lantai 3 L3-ST-02 Surface Temperature 2 30.30 °C
12826 02/09/2026 14:54:09 MB-L3-01Mainboard Lantai 3 L3-AI-06 Analog Input 6 3.12 V
12827 02/09/2026 14:54:09 MB-L3-01Mainboard Lantai 3 L3-LUX-06 Illuminance / LUX 6 45.20 lux
12828 02/09/2026 14:54:07 MB-L3-01Mainboard Lantai 3 L3-LUX-04 Illuminance / LUX 4 126.00 lux
12829 02/09/2026 14:54:07 MB-L5-01Mainboard Lantai 5 L5-HFT-02 Heat Flow Temperature 2 30.10 °C
12830 02/09/2026 14:54:07 MB-L5-01Mainboard Lantai 5 L5-SHT-01-RH SHT20 1 Humidity 48.40 %RH
12831 02/09/2026 14:54:07 MB-L3-01Mainboard Lantai 3 L3-HFT-02 Heat Flow Temperature 2 29.10 °C
12832 02/09/2026 14:54:07 MB-L3-01Mainboard Lantai 3 L3-SHT-01-T SHT20 1 Temperature 32.10 °C
12833 02/09/2026 14:54:07 MB-L5-01Mainboard Lantai 5 L5-HFT-01 Heat Flow Temperature 1 30.20 °C
12834 02/09/2026 14:54:07 MB-L5-01Mainboard Lantai 5 L5-LUX-01 Illuminance / LUX 1 265.00 lux
12835 02/09/2026 14:54:07 MB-L5-01Mainboard Lantai 5 L5-LUX-06 Illuminance / LUX 6 295.60 lux
12836 02/09/2026 14:54:07 MB-L5-01Mainboard Lantai 5 L5-ST-02 Surface Temperature 2 30.50 °C
12837 02/09/2026 14:54:07 MB-L3-01Mainboard Lantai 3 L3-LUX-02 Illuminance / LUX 2 67.70 lux
12838 02/09/2026 14:54:07 MB-L5-01Mainboard Lantai 5 L5-LUX-05 Illuminance / LUX 5 528.60 lux
12839 02/09/2026 14:54:07 MB-L3-01Mainboard Lantai 3 L3-SHT-01-RH SHT20 1 Humidity 48.30 %RH
12840 02/09/2026 14:54:07 MB-L3-01Mainboard Lantai 3 L3-AI-03 Analog Input 3 3.12 V
12841 02/09/2026 14:54:07 MB-L5-01Mainboard Lantai 5 L5-LUX-02 Illuminance / LUX 2 228.80 lux
12842 02/09/2026 14:54:07 MB-L5-01Mainboard Lantai 5 L5-ST-01 Surface Temperature 1 30.30 °C
12843 02/09/2026 14:54:07 MB-L3-01Mainboard Lantai 3 L3-SHT-02-RH SHT20 2 Humidity 48.50 %RH
12844 02/09/2026 14:54:07 MB-L3-01Mainboard Lantai 3 L3-BGT-01 Black Globe Temperature 1 29.90 °C
12845 02/09/2026 14:54:07 MB-L5-01Mainboard Lantai 5 L5-RAD-02 Radiation 2 2.00 W/m²
12846 02/09/2026 14:54:07 MB-L3-01Mainboard Lantai 3 L3-LUX-01 Illuminance / LUX 1 52.60 lux
12847 02/09/2026 14:54:07 MB-L3-01Mainboard Lantai 3 L3-RAD-02 Radiation 2 2.00 W/m²
12848 02/09/2026 14:54:07 MB-L5-01Mainboard Lantai 5 L5-AI-06 Analog Input 6 3.05 V
12849 02/09/2026 14:54:07 MB-L3-01Mainboard Lantai 3 L3-LUX-03 Illuminance / LUX 3 137.80 lux
12850 02/09/2026 14:54:07 MB-L5-01Mainboard Lantai 5 L5-SHT-02-RH SHT20 2 Humidity 48.10 %RH
12851 02/09/2026 14:54:07 MB-L3-01Mainboard Lantai 3 L3-AI-04 Analog Input 4 3.12 V
12852 02/09/2026 14:54:07 MB-L5-01Mainboard Lantai 5 L5-LUX-04 Illuminance / LUX 4 272.30 lux
12853 02/09/2026 14:54:07 MB-L3-01Mainboard Lantai 3 L3-BGT-02 Black Globe Temperature 2 29.90 °C
12854 02/09/2026 14:54:07 MB-L3-01Mainboard Lantai 3 L3-RAD-01 Radiation 1 2.00 W/m²
12855 02/09/2026 14:54:07 MB-L5-01Mainboard Lantai 5 L5-AI-05 Analog Input 5 3.05 V
12856 02/09/2026 14:54:07 MB-L5-01Mainboard Lantai 5 L5-SHT-03-T SHT20 3 Temperature 32.30 °C
12857 02/09/2026 14:54:07 MB-L5-01Mainboard Lantai 5 L5-SHT-01-T SHT20 1 Temperature 32.30 °C
12858 02/09/2026 14:54:07 MB-L3-01Mainboard Lantai 3 L3-SHT-03-RH SHT20 3 Humidity 49.30 %RH
12859 02/09/2026 14:54:07 MB-L5-01Mainboard Lantai 5 L5-SHT-02-T SHT20 2 Temperature 32.30 °C
12860 02/09/2026 14:54:07 MB-L5-01Mainboard Lantai 5 L5-SHT-03-RH SHT20 3 Humidity 48.60 %RH
12861 02/09/2026 14:54:07 MB-L5-01Mainboard Lantai 5 L5-AI-04 Analog Input 4 3.05 V
12862 02/09/2026 14:54:07 MB-L3-01Mainboard Lantai 3 L3-ST-01 Surface Temperature 1 29.90 °C
12863 02/09/2026 14:54:07 MB-L3-01Mainboard Lantai 3 L3-AI-05 Analog Input 5 3.12 V
12864 02/09/2026 14:54:07 MB-L3-01Mainboard Lantai 3 L3-SHT-03-T SHT20 3 Temperature 31.80 °C
12865 02/09/2026 14:54:07 MB-L5-01Mainboard Lantai 5 L5-RAD-01 Radiation 1 2.00 W/m²
12866 02/09/2026 14:54:07 MB-L5-01Mainboard Lantai 5 L5-AI-03 Analog Input 3 3.05 V
12867 02/09/2026 14:54:07 MB-L3-01Mainboard Lantai 3 L3-SHT-02-T SHT20 2 Temperature 32.00 °C
12868 02/09/2026 14:54:07 MB-L5-01Mainboard Lantai 5 L5-AI-02 Analog Input 2 3.05 V
12869 02/09/2026 14:54:07 MB-L3-01Mainboard Lantai 3 L3-BGT-03 Black Globe Temperature 3 29.40 °C
12870 02/09/2026 14:54:07 MB-L5-01Mainboard Lantai 5 L5-AI-01 Analog Input 1 3.05 V
12871 02/09/2026 14:54:07 MB-L3-01Mainboard Lantai 3 L3-ST-02 Surface Temperature 2 30.30 °C
12872 02/09/2026 14:54:07 MB-L3-01Mainboard Lantai 3 L3-AI-06 Analog Input 6 3.12 V
12873 02/09/2026 14:54:07 MB-L3-01Mainboard Lantai 3 L3-LUX-06 Illuminance / LUX 6 40.30 lux
12874 02/09/2026 14:54:07 MB-L3-01Mainboard Lantai 3 L3-AI-01 Analog Input 1 3.12 V
12875 02/09/2026 14:54:07 MB-L5-01Mainboard Lantai 5 L5-BGT-03 Black Globe Temperature 3 29.80 °C
12876 02/09/2026 14:54:07 MB-L3-01Mainboard Lantai 3 L3-HFT-01 Heat Flow Temperature 1 29.70 °C
12877 02/09/2026 14:54:07 MB-L5-01Mainboard Lantai 5 L5-LUX-03 Illuminance / LUX 3 206.20 lux
12878 02/09/2026 14:54:07 MB-L5-01Mainboard Lantai 5 L5-BGT-02 Black Globe Temperature 2 29.80 °C
12879 02/09/2026 14:54:07 MB-L5-01Mainboard Lantai 5 L5-BGT-01 Black Globe Temperature 1 29.90 °C
12880 02/09/2026 14:54:07 MB-L3-01Mainboard Lantai 3 L3-LUX-05 Illuminance / LUX 5 77.10 lux
12881 02/09/2026 14:54:07 MB-L3-01Mainboard Lantai 3 L3-AI-02 Analog Input 2 3.12 V
12882 02/09/2026 14:54:05 MB-L3-01Mainboard Lantai 3 L3-SHT-02-RH SHT20 2 Humidity 48.60 %RH
12883 02/09/2026 14:54:05 MB-L3-01Mainboard Lantai 3 L3-BGT-01 Black Globe Temperature 1 29.90 °C
12884 02/09/2026 14:54:05 MB-L5-01Mainboard Lantai 5 L5-RAD-02 Radiation 2 2.00 W/m²
12885 02/09/2026 14:54:05 MB-L3-01Mainboard Lantai 3 L3-LUX-01 Illuminance / LUX 1 38.20 lux
12886 02/09/2026 14:54:05 MB-L3-01Mainboard Lantai 3 L3-RAD-02 Radiation 2 2.00 W/m²
12887 02/09/2026 14:54:05 MB-L5-01Mainboard Lantai 5 L5-AI-06 Analog Input 6 3.05 V
12888 02/09/2026 14:54:05 MB-L3-01Mainboard Lantai 3 L3-LUX-03 Illuminance / LUX 3 137.80 lux
12889 02/09/2026 14:54:05 MB-L5-01Mainboard Lantai 5 L5-SHT-02-RH SHT20 2 Humidity 48.30 %RH
12890 02/09/2026 14:54:05 MB-L3-01Mainboard Lantai 3 L3-AI-04 Analog Input 4 3.12 V
12891 02/09/2026 14:54:05 MB-L5-01Mainboard Lantai 5 L5-LUX-04 Illuminance / LUX 4 272.50 lux
12892 02/09/2026 14:54:05 MB-L3-01Mainboard Lantai 3 L3-BGT-02 Black Globe Temperature 2 29.90 °C
12893 02/09/2026 14:54:05 MB-L3-01Mainboard Lantai 3 L3-RAD-01 Radiation 1 2.00 W/m²
12894 02/09/2026 14:54:05 MB-L5-01Mainboard Lantai 5 L5-AI-05 Analog Input 5 3.05 V
12895 02/09/2026 14:54:05 MB-L5-01Mainboard Lantai 5 L5-SHT-03-T SHT20 3 Temperature 32.20 °C
12896 02/09/2026 14:54:05 MB-L5-01Mainboard Lantai 5 L5-SHT-01-T SHT20 1 Temperature 32.30 °C
12897 02/09/2026 14:54:05 MB-L3-01Mainboard Lantai 3 L3-SHT-03-RH SHT20 3 Humidity 49.20 %RH
12898 02/09/2026 14:54:05 MB-L5-01Mainboard Lantai 5 L5-SHT-02-T SHT20 2 Temperature 32.30 °C
12899 02/09/2026 14:54:05 MB-L5-01Mainboard Lantai 5 L5-SHT-03-RH SHT20 3 Humidity 48.60 %RH
12900 02/09/2026 14:54:05 MB-L5-01Mainboard Lantai 5 L5-AI-04 Analog Input 4 3.05 V
Menampilkan maksimal 100 data per halaman